Time;durP1;ratioP1;P1;durP2;ratioP2;P2;SDS_P1;SDS_P2;PMS_P1;PMS_P2;Temp;Humidity;BMP_temperature;BMP_pressure;BME280_temperature;BME280_humidity;BME280_pressure;Samples;Min_cycle;Max_cycle;Signal;HPM_P1;HPM_P2
2022/11/06 00:01:10;;;;;;;25.23;15.43;;;7.00;99.90;;;;;;4660477;28;9999745;-72
2022/11/06 00:03:37;;;;;;;29.83;15.98;;;7.10;99.90;;;;;;5006951;28;20034;-72
2022/11/06 00:08:57;;;;;;;28.10;16.48;;;7.10;99.90;;;;;;5002563;28;20087;-73
2022/11/06 00:11:23;;;;;;;27.75;16.23;;;7.10;99.90;;;;;;5009468;28;20548;-73
2022/11/06 00:13:51;;;;;;;27.88;16.30;;;7.10;99.90;;;;;;4999718;28;20095;-73
2022/11/06 00:16:17;;;;;;;28.17;16.30;;;7.10;99.90;;;;;;5007284;28;20028;-72
2022/11/06 00:18:43;;;;;;;28.08;15.75;;;7.20;99.90;;;;;;5009524;28;20033;-72
2022/11/06 00:21:12;;;;;;;26.27;16.13;;;7.20;99.90;;;;;;5009688;28;20022;-72
2022/11/06 00:23:38;;;;;;;31.85;16.17;;;7.10;99.90;;;;;;5004702;28;20428;-73
2022/11/06 00:26:09;;;;;;;30.00;17.13;;;7.20;99.90;;;;;;5010113;28;20436;-73
2022/11/06 00:28:35;;;;;;;30.13;16.13;;;7.20;99.90;;;;;;5006818;28;20021;-73
2022/11/06 00:31:07;;;;;;;29.33;15.70;;;7.20;99.90;;;;;;5014062;28;20037;-73
2022/11/06 00:33:33;;;;;;;26.77;15.38;;;7.30;99.90;;;;;;5007956;28;20071;-73
2022/11/06 00:36:02;;;;;;;29.08;17.13;;;7.30;99.90;;;;;;5004652;28;20898;-73
2022/11/06 00:38:28;;;;;;;35.55;17.20;;;7.30;99.90;;;;;;5008498;28;20080;-72
2022/11/06 00:40:53;;;;;;;25.67;15.63;;;7.30;99.90;;;;;;5012890;28;20030;-73
2022/11/06 00:43:19;;;;;;;30.83;16.85;;;7.30;99.90;;;;;;5006086;28;20022;-73
2022/11/06 00:45:44;;;;;;;27.63;15.98;;;7.30;99.90;;;;;;5011396;28;20206;-73
2022/11/06 00:48:10;;;;;;;31.33;17.35;;;7.20;99.90;;;;;;5009237;28;20445;-73
2022/11/06 00:50:36;;;;;;;34.28;16.60;;;7.30;99.90;;;;;;5008359;28;20660;-73
2022/11/06 00:53:01;;;;;;;30.77;17.45;;;7.30;99.90;;;;;;5005247;28;20034;-73
2022/11/06 00:55:27;;;;;;;29.70;16.92;;;7.20;99.90;;;;;;5003696;28;20029;-73
2022/11/06 00:57:52;;;;;;;29.15;16.98;;;7.20;99.90;;;;;;5004275;28;20030;-73
2022/11/06 01:00:19;;;;;;;28.70;16.35;;;7.30;99.90;;;;;;5008484;28;20038;-73
2022/11/06 01:02:45;;;;;;;27.67;16.40;;;7.30;99.90;;;;;;5008662;28;20109;-73
2022/11/06 01:05:11;;;;;;;31.67;17.30;;;7.30;99.90;;;;;;5013026;28;20033;-73
2022/11/06 01:07:38;;;;;;;31.25;17.67;;;7.30;99.90;;;;;;5008500;28;20573;-73
2022/11/06 01:10:04;;;;;;;31.92;17.15;;;7.20;99.90;;;;;;5010298;28;20048;-73
2022/11/06 01:12:31;;;;;;;28.70;17.48;;;7.20;99.90;;;;;;5014039;28;20532;-72
2022/11/06 01:14:57;;;;;;;28.95;16.77;;;7.20;99.90;;;;;;5013121;28;20037;-73
2022/11/06 01:17:23;;;;;;;28.77;16.95;;;7.10;99.90;;;;;;5014230;28;20043;-72
2022/11/06 01:19:48;;;;;;;31.38;17.27;;;7.10;99.90;;;;;;5017088;28;20412;-72
2022/11/06 01:22:15;;;;;;;31.27;17.33;;;7.00;99.90;;;;;;5013072;28;20041;-72
2022/11/06 01:24:41;;;;;;;31.02;16.92;;;7.00;99.90;;;;;;5012918;28;20456;-72
2022/11/06 01:27:07;;;;;;;30.90;17.15;;;7.00;99.90;;;;;;5013818;28;20030;-72
2022/11/06 01:29:33;;;;;;;29.73;17.58;;;7.00;99.90;;;;;;5012394;28;20053;-72
2022/11/06 01:31:58;;;;;;;35.53;17.88;;;7.00;99.90;;;;;;5006946;28;20040;-72
2022/11/06 01:34:24;;;;;;;34.70;17.48;;;6.90;99.90;;;;;;5011021;28;21409;-72
2022/11/06 01:36:50;;;;;;;30.98;18.23;;;7.00;99.90;;;;;;5011186;28;20529;-72
2022/11/06 01:39:16;;;;;;;32.80;17.52;;;7.00;99.90;;;;;;5012433;28;20044;-73
2022/11/06 01:41:45;;;;;;;32.75;17.08;;;7.00;99.90;;;;;;5009512;28;20057;-73
2022/11/06 01:44:42;;;;;;;29.38;16.85;;;6.90;99.90;;;;;;5011403;28;20029;-73
2022/11/06 01:47:23;;;;;;;36.67;18.25;;;7.00;99.90;;;;;;5011863;28;20076;-73
2022/11/06 01:49:52;;;;;;;30.15;18.17;;;6.90;99.90;;;;;;5011966;28;20045;-73
2022/11/06 01:52:19;;;;;;;34.20;17.45;;;7.00;99.90;;;;;;5008835;28;20041;-73
2022/11/06 01:54:50;;;;;;;30.05;17.10;;;7.00;99.90;;;;;;5013003;28;20033;-73
2022/11/06 01:57:15;;;;;;;29.33;17.25;;;7.00;99.90;;;;;;5021944;28;20122;-73
2022/11/06 01:59:44;;;;;;;32.55;17.67;;;7.00;99.90;;;;;;5014392;28;20021;-73
2022/11/06 02:02:11;;;;;;;33.10;16.75;;;7.00;99.90;;;;;;5010915;28;20021;-72
2022/11/06 02:04:41;;;;;;;31.90;16.92;;;7.00;99.90;;;;;;5007348;28;20074;-73
2022/11/06 02:07:08;;;;;;;27.52;16.60;;;7.00;99.90;;;;;;5011613;28;20041;-73
2022/11/06 02:09:34;;;;;;;32.85;17.15;;;7.00;99.90;;;;;;5010499;28;20044;-73
2022/11/06 02:12:31;;;;;;;30.58;16.42;;;7.00;99.90;;;;;;5005332;28;20033;-73
2022/11/06 02:15:20;;;;;;;31.15;17.17;;;7.10;99.90;;;;;;5009542;28;20037;-73
2022/11/06 02:17:55;;;;;;;30.60;16.70;;;7.10;99.90;;;;;;5023182;28;20056;-73
2022/11/06 02:20:32;;;;;;;29.73;16.90;;;7.10;99.90;;;;;;5026963;28;20029;-72
2022/11/06 02:23:23;;;;;;;31.73;16.48;;;7.10;99.90;;;;;;5011910;28;20029;-73
2022/11/06 02:26:05;;;;;;;30.23;16.05;;;7.10;99.90;;;;;;5016757;28;20033;-73
2022/11/06 02:28:38;;;;;;;28.73;16.17;;;7.00;99.90;;;;;;5026544;28;20511;-72
2022/11/06 02:31:10;;;;;;;29.15;17.13;;;7.00;99.90;;;;;;5020038;28;20457;-72
2022/11/06 02:33:43;;;;;;;17.45;11.25;;;7.00;99.90;;;;;;5025954;28;20077;-72
2022/11/06 02:36:15;;;;;;;30.10;16.25;;;7.10;99.90;;;;;;5021935;28;20524;-72
2022/11/06 02:38:46;;;;;;;32.78;16.15;;;7.10;99.90;;;;;;5027682;28;20504;-72
2022/11/06 02:41:18;;;;;;;30.55;16.70;;;7.10;99.90;;;;;;5018495;28;20088;-72
2022/11/06 02:43:47;;;;;;;32.25;16.30;;;7.10;99.90;;;;;;5027230;28;20029;-72
2022/11/06 02:46:33;;;;;;;25.90;14.90;;;7.10;99.90;;;;;;5010849;28;20091;-72
2022/11/06 02:49:06;;;;;;;27.35;16.05;;;7.10;99.90;;;;;;5018115;28;20232;-72
2022/11/06 02:51:40;;;;;;;28.08;14.90;;;7.10;99.90;;;;;;5018223;28;20035;-72
2022/11/06 02:54:08;;;;;;;29.67;15.63;;;7.10;99.90;;;;;;5033659;28;20064;-73
2022/11/06 02:56:38;;;;;;;28.05;15.18;;;7.10;99.90;;;;;;5022379;28;20069;-72
2022/11/06 02:59:22;;;;;;;28.00;15.70;;;7.00;99.90;;;;;;5022975;28;20028;-72
2022/11/06 03:01:59;;;;;;;29.08;15.02;;;7.00;99.90;;;;;;5017110;28;20088;-72
2022/11/06 03:04:37;;;;;;;22.40;14.73;;;7.00;99.90;;;;;;5030132;28;20026;-73
2022/11/06 03:07:09;;;;;;;30.25;14.20;;;7.00;99.90;;;;;;5016333;28;20056;-73
2022/11/06 03:09:35;;;;;;;28.60;15.18;;;7.00;99.90;;;;;;5023543;28;20028;-73
2022/11/06 03:12:19;;;;;;;28.52;14.40;;;7.10;99.90;;;;;;5026532;28;20033;-73
2022/11/06 03:14:59;;;;;;;25.38;13.98;;;7.10;99.90;;;;;;5019207;28;20022;-73
2022/11/06 03:17:49;;;;;;;25.55;15.00;;;7.10;99.90;;;;;;5030166;28;20281;-72
2022/11/06 03:21:01;;;;;;;25.33;14.75;;;7.10;99.90;;;;;;5018921;28;20420;-73
2022/11/06 03:23:40;;;;;;;24.42;14.73;;;7.10;99.90;;;;;;5025553;28;20493;-73
2022/11/06 03:26:20;;;;;;;28.15;15.20;;;7.10;99.90;;;;;;5024612;28;20063;-73
2022/11/06 03:29:04;;;;;;;25.95;15.23;;;7.10;99.90;;;;;;5015367;28;20035;-72
2022/11/06 03:31:36;;;;;;;28.02;15.02;;;7.00;99.90;;;;;;5014142;28;20096;-72
2022/11/06 03:34:07;;;;;;;29.33;15.98;;;7.00;99.90;;;;;;5016199;28;20037;-73
2022/11/06 03:36:41;;;;;;;26.50;15.20;;;7.00;99.90;;;;;;5028953;28;20168;-73
2022/11/06 03:39:16;;;;;;;26.65;15.90;;;7.00;99.90;;;;;;5030693;28;20036;-73
2022/11/06 03:42:09;;;;;;;27.77;15.80;;;7.00;99.90;;;;;;5015286;28;20692;-73
2022/11/06 03:44:41;;;;;;;20.20;12.07;;;7.00;99.90;;;;;;5021110;28;20034;-72
2022/11/06 03:47:17;;;;;;;28.02;15.35;;;7.00;99.90;;;;;;5025495;28;20034;-73
2022/11/06 03:49:52;;;;;;;26.60;15.18;;;7.10;99.90;;;;;;5030972;28;20026;-72
2022/11/06 03:52:31;;;;;;;25.70;15.10;;;7.10;99.90;;;;;;5024770;28;20036;-72
2022/11/06 03:55:04;;;;;;;27.58;15.52;;;7.10;99.90;;;;;;5010187;28;20026;-72
2022/11/06 03:57:41;;;;;;;28.95;14.57;;;7.10;99.90;;;;;;5033611;28;20033;-72
2022/11/06 04:00:08;;;;;;;31.58;15.10;;;7.10;99.90;;;;;;5024819;28;20029;-72
2022/11/06 04:02:38;;;;;;;26.33;14.65;;;7.10;99.90;;;;;;5018615;28;20398;-72
2022/11/06 04:05:12;;;;;;;26.55;15.13;;;7.00;99.90;;;;;;5028888;28;20115;-72
2022/11/06 04:13:56;;;;;;;30.60;15.20;;;7.00;99.90;;;;;;5023888;28;20028;-73
2022/11/06 04:16:02;;;;;;;26.50;14.30;;;7.00;99.90;;;;;;5009512;28;20048;-72
2022/11/06 04:18:27;;;;;;;26.92;15.07;;;7.00;99.90;;;;;;5012791;28;20067;-72
2022/11/06 04:27:31;;;;;;;25.38;14.98;;;7.00;99.90;;;;;;5018498;28;20041;-73
2022/11/06 04:30:32;;;;;;;28.33;14.80;;;7.10;99.90;;;;;;5013373;28;20315;-73
2022/11/06 04:33:22;;;;;;;26.65;14.25;;;7.10;99.90;;;;;;5025757;28;20498;-73
2022/11/06 04:36:06;;;;;;;22.98;13.77;;;7.10;99.90;;;;;;5013625;28;20035;-73
2022/11/06 04:38:57;;;;;;;27.65;13.85;;;7.10;99.90;;;;;;5015754;28;20068;-73
2022/11/06 04:41:35;;;;;;;28.20;13.82;;;7.20;99.90;;;;;;5013908;28;20033;-72
2022/11/06 04:44:06;;;;;;;30.67;14.25;;;7.20;99.90;;;;;;5007110;28;20444;-73
2022/11/06 04:46:56;;;;;;;21.75;13.40;;;7.10;99.90;;;;;;5012224;28;20041;-73
2022/11/06 04:49:23;;;;;;;22.85;14.07;;;7.20;99.90;;;;;;5012041;28;20037;-73
2022/11/06 04:51:49;;;;;;;24.50;14.02;;;7.20;99.90;;;;;;5021807;28;20033;-73
2022/11/06 04:54:16;;;;;;;23.10;13.55;;;7.20;99.90;;;;;;5008582;28;20136;-73
2022/11/06 04:56:41;;;;;;;21.17;12.55;;;7.10;99.90;;;;;;5016062;28;20332;-73
2022/11/06 04:59:15;;;;;;;27.02;13.35;;;7.10;99.90;;;;;;5019598;28;20025;-72
2022/11/06 05:01:40;;;;;;;;;;;7.10;99.90;;;;;;5017158;28;20126;-72
2022/11/06 05:04:06;;;;;;;25.45;11.85;;;7.10;99.90;;;;;;5012925;28;20064;-72
2022/11/06 05:06:31;;;;;;;19.90;11.90;;;7.10;99.90;;;;;;5026327;28;20087;-72
2022/11/06 05:08:57;;;;;;;20.67;12.30;;;7.20;99.90;;;;;;5014770;28;20543;-72
2022/11/06 05:11:23;;;;;;;22.85;12.60;;;7.20;99.90;;;;;;5031347;28;20036;-72
2022/11/06 05:13:49;;;;;;;21.08;12.13;;;7.20;99.90;;;;;;5014725;28;20029;-72
2022/11/06 05:16:15;;;;;;;25.58;12.02;;;7.20;99.90;;;;;;5019497;28;20044;-72
2022/11/06 05:18:40;;;;;;;23.42;12.35;;;7.10;99.90;;;;;;5013620;28;20056;-72
2022/11/06 05:23:50;;;;;;;22.23;12.18;;;7.10;99.90;;;;;;5019567;28;20121;-72
2022/11/06 05:26:16;;;;;;;21.50;12.43;;;7.10;99.90;;;;;;5019743;28;20021;-72
2022/11/06 05:28:41;;;;;;;22.30;12.70;;;7.10;99.90;;;;;;5024322;28;20127;-73
2022/11/06 05:31:07;;;;;;;25.60;12.32;;;7.10;99.90;;;;;;5025472;28;20517;-73
2022/11/06 05:33:33;;;;;;;24.20;12.38;;;7.10;99.90;;;;;;5012379;28;20158;-72
2022/11/06 05:36:03;;;;;;;25.38;12.48;;;7.10;99.90;;;;;;5011958;28;20139;-73
2022/11/06 05:38:29;;;;;;;24.02;11.82;;;7.10;99.90;;;;;;5022466;28;20104;-72
2022/11/06 05:40:55;;;;;;;19.13;11.68;;;7.10;99.90;;;;;;5023654;28;20192;-73
2022/11/06 05:43:21;;;;;;;22.50;11.85;;;7.10;99.90;;;;;;5023575;28;20061;-73
2022/11/06 05:45:46;;;;;;;21.25;12.55;;;7.10;99.90;;;;;;5016371;28;20069;-73
2022/11/06 05:48:12;;;;;;;22.85;12.63;;;7.10;99.90;;;;;;5015950;28;20052;-73
2022/11/06 05:50:37;;;;;;;23.98;12.02;;;7.10;99.90;;;;;;5015841;28;20028;-72
2022/11/06 05:53:03;;;;;;;21.13;12.20;;;7.10;99.90;;;;;;5026416;28;20370;-73
2022/11/06 05:55:29;;;;;;;24.48;12.50;;;7.10;99.90;;;;;;5030121;28;20072;-73
2022/11/06 05:57:54;;;;;;;21.90;11.68;;;7.10;99.90;;;;;;5023129;28;20088;-73
2022/11/06 06:00:20;;;;;;;25.17;11.45;;;7.10;99.90;;;;;;5024500;28;20021;-73
2022/11/06 06:02:46;;;;;;;20.17;11.57;;;7.10;99.90;;;;;;5030984;28;20487;-73
2022/11/06 06:05:11;;;;;;;21.83;12.18;;;7.10;99.90;;;;;;5014085;28;20028;-74
2022/11/06 06:07:37;;;;;;;23.73;11.50;;;7.10;99.90;;;;;;5007926;28;22510;-73
2022/11/06 06:10:03;;;;;;;19.65;11.75;;;7.20;99.90;;;;;;5012761;28;20037;-73
2022/11/06 06:12:28;;;;;;;22.20;11.85;;;7.10;99.90;;;;;;5007163;28;20041;-73
2022/11/06 06:14:54;;;;;;;23.20;11.73;;;7.10;99.90;;;;;;5020870;28;20373;-72
2022/11/06 06:17:20;;;;;;;21.88;11.35;;;7.20;99.90;;;;;;5016482;28;20022;-72
2022/11/06 06:19:47;;;;;;;20.40;11.45;;;7.20;99.90;;;;;;5018776;28;20021;-72
2022/11/06 06:22:13;;;;;;;22.33;11.57;;;7.20;99.90;;;;;;5009414;28;20030;-72
2022/11/06 06:24:39;;;;;;;20.48;12.18;;;7.20;99.90;;;;;;5029632;28;20025;-72
2022/11/06 06:27:05;;;;;;;21.45;10.50;;;7.20;99.90;;;;;;5024986;28;20187;-72
2022/11/06 06:29:31;;;;;;;23.08;11.00;;;7.20;99.90;;;;;;5030597;28;20142;-72
2022/11/06 06:31:57;;;;;;;20.92;11.70;;;7.20;99.90;;;;;;5020606;28;20626;-73
2022/11/06 06:34:22;;;;;;;27.65;11.00;;;7.20;99.90;;;;;;5020122;28;20033;-72
2022/11/06 06:36:50;;;;;;;22.45;11.68;;;7.30;99.90;;;;;;5026074;28;20025;-73
2022/11/06 06:39:16;;;;;;;23.55;11.15;;;7.30;99.90;;;;;;5011121;28;20554;-73
2022/11/06 06:41:42;;;;;;;21.63;10.88;;;7.20;99.90;;;;;;5019589;28;20591;-72
2022/11/06 06:44:07;;;;;;;23.40;11.98;;;7.20;99.90;;;;;;5023379;28;20109;-72
2022/11/06 06:46:33;;;;;;;24.77;11.82;;;7.20;99.90;;;;;;5040232;28;20090;-73
2022/11/06 06:48:59;;;;;;;24.50;11.05;;;7.30;99.90;;;;;;5021309;28;20033;-72
2022/11/06 06:51:24;;;;;;;23.15;11.48;;;7.30;99.90;;;;;;5023087;28;20037;-73
2022/11/06 06:53:50;;;;;;;26.63;11.93;;;7.30;99.90;;;;;;5012508;28;20036;-73
2022/11/06 06:56:15;;;;;;;27.73;12.70;;;7.30;99.90;;;;;;5019370;28;20055;-73
2022/11/06 06:58:41;;;;;;;25.20;13.00;;;7.30;99.90;;;;;;5025162;28;20032;-72
2022/11/06 07:01:09;;;;;;;26.17;13.20;;;7.30;99.90;;;;;;5017602;28;20033;-73
2022/11/06 07:03:36;;;;;;;23.70;12.40;;;7.30;99.90;;;;;;5028943;28;20024;-72
2022/11/06 07:06:03;;;;;;;24.85;12.77;;;7.30;99.90;;;;;;5014553;28;20409;-73
2022/11/06 07:08:28;;;;;;;22.00;10.75;;;7.30;99.90;;;;;;5020112;28;20036;-73
2022/11/06 07:11:00;;;;;;;25.73;11.10;;;7.40;99.90;;;;;;5030245;28;20029;-72
2022/11/06 07:13:26;;;;;;;20.60;10.98;;;7.40;99.90;;;;;;5027628;28;20317;-72
2022/11/06 07:15:52;;;;;;;17.92;11.15;;;7.40;99.90;;;;;;5022854;28;20033;-73
2022/11/06 07:18:18;;;;;;;26.83;12.35;;;7.40;99.90;;;;;;5019236;28;20034;-72
2022/11/06 07:20:43;;;;;;;24.73;11.00;;;7.30;99.90;;;;;;5018245;28;20030;-73
2022/11/06 07:23:09;;;;;;;22.15;10.43;;;7.40;99.90;;;;;;5008118;28;20025;-73
2022/11/06 07:25:35;;;;;;;24.65;10.88;;;7.40;99.90;;;;;;5019424;28;20029;-73
2022/11/06 07:28:05;;;;;;;29.60;15.85;;;7.40;99.90;;;;;;5014493;28;20037;-73
2022/11/06 07:30:32;;;;;;;34.22;20.83;;;7.40;99.90;;;;;;5018468;28;20066;-72
2022/11/06 07:33:02;;;;;;;21.83;11.02;;;7.40;99.90;;;;;;5009083;28;20080;-72
2022/11/06 07:35:28;;;;;;;19.95;11.65;;;7.40;99.90;;;;;;5011464;28;20073;-72
2022/11/06 07:37:54;;;;;;;17.80;10.95;;;7.40;99.90;;;;;;5023630;28;20078;-72
2022/11/06 07:40:19;;;;;;;17.58;11.02;;;7.50;99.90;;;;;;5028331;28;20063;-72
2022/11/06 07:42:45;;;;;;;21.88;11.45;;;7.50;99.90;;;;;;5011815;28;20496;-72
2022/11/06 07:45:11;;;;;;;22.10;10.75;;;7.60;99.90;;;;;;5018097;28;20025;-72
2022/11/06 07:47:36;;;;;;;21.25;12.18;;;7.60;99.90;;;;;;5034289;28;20227;-73
2022/11/06 07:50:03;;;;;;;20.67;11.07;;;7.60;99.90;;;;;;5037155;28;20028;-72
2022/11/06 07:52:28;;;;;;;20.50;10.93;;;7.60;99.90;;;;;;5023460;28;20509;-72
2022/11/06 07:54:54;;;;;;;18.23;11.15;;;7.70;99.90;;;;;;5032196;28;20041;-73
2022/11/06 07:57:19;;;;;;;17.90;10.45;;;7.70;99.90;;;;;;5012937;28;20026;-72
2022/11/06 07:59:45;;;;;;;19.92;10.25;;;7.70;99.90;;;;;;5029403;28;20123;-73
2022/11/06 08:02:12;;;;;;;18.02;9.80;;;7.80;99.90;;;;;;4669350;28;10000238;-72
2022/11/06 08:04:38;;;;;;;19.85;9.93;;;7.80;99.90;;;;;;5020658;28;20549;-73
2022/11/06 08:07:04;;;;;;;15.63;9.85;;;7.80;99.90;;;;;;5031167;28;20033;-73
2022/11/06 08:09:30;;;;;;;23.88;9.63;;;7.80;99.90;;;;;;5012388;28;20025;-73
2022/11/06 08:11:55;;;;;;;20.35;11.02;;;7.90;99.90;;;;;;5018750;28;20482;-73
2022/11/06 08:14:21;;;;;;;17.88;9.93;;;8.00;99.90;;;;;;5003447;28;20356;-73
2022/11/06 08:16:47;;;;;;;17.45;9.40;;;8.20;99.90;;;;;;5005795;28;20493;-72
2022/11/06 08:19:13;;;;;;;18.00;8.50;;;8.30;99.90;;;;;;5010428;28;20297;-73
2022/11/06 08:21:38;;;;;;;19.60;8.75;;;8.40;99.90;;;;;;5014512;28;20040;-73
2022/11/06 08:24:05;;;;;;;15.23;8.43;;;8.60;99.90;;;;;;4999678;28;20587;-73
2022/11/06 08:26:31;;;;;;;15.52;7.68;;;8.70;99.90;;;;;;5009327;28;20029;-73
2022/11/06 08:28:56;;;;;;;16.00;8.20;;;8.80;99.90;;;;;;5015144;28;20309;-73
2022/11/06 08:31:23;;;;;;;17.05;8.88;;;8.90;99.90;;;;;;5010165;28;20033;-73
2022/11/06 08:33:48;;;;;;;15.05;8.60;;;9.00;99.90;;;;;;5013122;28;20563;-73
2022/11/06 08:36:14;;;;;;;18.30;8.80;;;;;;;;;;5015795;28;20025;-73
2022/11/06 08:38:40;;;;;;;13.65;7.22;;;9.20;99.90;;;;;;5018497;28;20022;-74
2022/11/06 08:41:07;;;;;;;17.83;8.98;;;9.30;99.90;;;;;;5012669;28;20025;-74
2022/11/06 08:43:34;;;;;;;14.73;8.30;;;9.30;99.90;;;;;;5016552;28;20086;-73
2022/11/06 08:46:00;;;;;;;13.07;7.00;;;9.30;99.90;;;;;;5021292;28;20084;-73
2022/11/06 08:48:26;;;;;;;14.70;8.38;;;9.20;99.90;;;;;;5008105;28;20038;-73
2022/11/06 08:50:51;;;;;;;12.25;7.97;;;9.20;99.90;;;;;;5028200;28;20034;-73
2022/11/06 08:53:17;;;;;;;14.15;7.65;;;9.10;99.90;;;;;;5016543;28;20520;-73
2022/11/06 08:55:42;;;;;;;11.75;7.13;;;9.10;99.90;;;;;;5026930;28;20065;-73
2022/11/06 08:58:08;;;;;;;14.80;7.55;;;9.00;99.90;;;;;;5027475;28;20470;-73
2022/11/06 09:00:34;;;;;;;24.55;12.10;;;9.00;99.90;;;;;;5016176;28;20117;-73
2022/11/06 09:03:13;;;;;;;17.75;10.77;;;9.00;99.90;;;;;;5012731;28;20033;-73
2022/11/06 09:05:40;;;;;;;14.20;7.15;;;9.00;99.90;;;;;;5023153;28;20121;-73
2022/11/06 09:08:07;;;;;;;18.52;7.45;;;9.00;99.90;;;;;;5028274;28;20029;-73
2022/11/06 09:10:33;;;;;;;14.05;6.82;;;9.20;99.90;;;;;;5024828;28;20213;-73
2022/11/06 09:12:59;;;;;;;11.05;6.53;;;;;;;;;;5014510;28;20092;-73
2022/11/06 09:15:25;;;;;;;12.05;5.68;;;9.10;99.90;;;;;;5011377;28;20448;-73
2022/11/06 09:17:52;;;;;;;14.18;6.68;;;9.20;99.90;;;;;;5009122;28;20046;-73
2022/11/06 09:20:19;;;;;;;12.85;6.43;;;9.30;99.90;;;;;;5008364;28;20014;-73
2022/11/06 09:22:45;;;;;;;17.90;6.45;;;9.40;99.90;;;;;;5018311;28;20125;-73
2022/11/06 09:25:11;;;;;;;15.05;7.65;;;9.50;99.90;;;;;;5006545;28;20044;-73
2022/11/06 09:27:47;;;;;;;13.32;6.82;;;;;;;;;;5011101;28;20037;-73
2022/11/06 09:30:14;;;;;;;15.10;6.75;;;;;;;;;;5024355;28;20053;-73
2022/11/06 09:32:47;;;;;;;12.23;5.85;;;;;;;;;;5006065;28;20026;-74
2022/11/06 09:35:13;;;;;;;;;;;9.70;99.90;;;;;;5023244;28;20120;-74
2022/11/06 09:37:40;;;;;;;14.00;6.65;;;9.70;99.90;;;;;;5027516;28;19920;-74
2022/11/06 09:40:07;;;;;;;12.30;6.78;;;9.80;99.90;;;;;;5023933;28;20527;-73
2022/11/06 09:43:06;;;;;;;13.95;6.60;;;10.00;99.90;;;;;;5015885;28;20488;-74
2022/11/06 09:45:36;;;;;;;16.98;6.90;;;10.00;99.90;;;;;;5012897;28;20398;-74
2022/11/06 09:48:16;;;;;;;11.18;5.78;;;10.20;99.90;;;;;;5017525;28;20034;-74
2022/11/06 09:51:00;;;;;;;13.30;6.00;;;10.20;99.90;;;;;;5008529;28;20033;-74
2022/11/06 09:53:40;;;;;;;12.60;6.60;;;10.20;99.90;;;;;;5005430;28;20025;-73
2022/11/06 09:56:09;;;;;;;11.27;7.38;;;10.20;99.90;;;;;;5008724;28;20041;-74
2022/11/06 09:58:38;;;;;;;12.23;7.03;;;10.30;99.90;;;;;;5012211;28;20025;-73
2022/11/06 10:01:20;;;;;;;10.98;5.20;;;10.30;99.90;;;;;;5020240;28;20469;-73
2022/11/06 10:03:53;;;;;;;11.75;4.50;;;10.40;99.90;;;;;;5005154;28;20456;-73
2022/11/06 10:06:21;;;;;;;12.00;5.57;;;10.40;99.90;;;;;;5021717;28;20080;-73
2022/11/06 10:08:49;;;;;;;10.38;5.00;;;10.30;99.90;;;;;;5013936;28;20053;-73
2022/11/06 10:11:15;;;;;;;12.15;5.40;;;10.30;99.90;;;;;;5007391;28;20029;-73
2022/11/06 10:13:40;;;;;;;10.30;5.22;;;;;;;;;;5010759;28;20030;-73
2022/11/06 10:16:06;;;;;;;11.07;4.95;;;10.60;99.90;;;;;;5010629;28;20073;-73
2022/11/06 10:19:05;;;;;;;8.90;4.85;;;10.60;99.90;;;;;;5027036;28;20021;-73
2022/11/06 10:21:52;;;;;;;10.40;4.90;;;10.60;99.90;;;;;;5015733;28;20037;-73
2022/11/06 10:24:43;;;;;;;10.77;4.38;;;10.60;99.90;;;;;;5014691;28;20034;-73
2022/11/06 10:27:22;;;;;;;11.60;4.80;;;10.70;99.90;;;;;;5018672;28;20045;-73
2022/11/06 10:30:09;;;;;;;10.38;4.60;;;10.70;99.90;;;;;;5016902;28;20476;-74
2022/11/06 10:33:15;;;;;;;8.15;4.20;;;10.80;99.90;;;;;;5017404;28;20148;-73
2022/11/06 10:35:54;;;;;;;10.43;5.45;;;;;;;;;;5017972;28;20410;-74
2022/11/06 10:38:26;;;;;;;11.65;4.57;;;10.90;99.90;;;;;;5008065;28;20584;-73
2022/11/06 10:40:54;;;;;;;8.80;4.40;;;10.90;99.90;;;;;;5006944;28;20021;-74
2022/11/06 10:43:30;;;;;;;10.75;4.05;;;11.00;99.90;;;;;;5015689;28;20033;-74
2022/11/06 10:46:21;;;;;;;13.32;4.93;;;11.10;99.90;;;;;;5023592;28;20124;-73
2022/11/06 10:48:58;;;;;;;13.75;4.20;;;11.10;99.90;;;;;;5017560;28;20030;-74
2022/11/06 10:51:44;;;;;;;8.63;3.90;;;11.10;99.90;;;;;;5015866;28;20025;-74
2022/11/06 10:54:31;;;;;;;10.15;3.90;;;11.10;99.90;;;;;;5017758;28;20056;-74
2022/11/06 10:57:10;;;;;;;12.52;5.30;;;11.10;99.90;;;;;;5015901;28;20349;-73
2022/11/06 10:59:36;;;;;;;13.27;5.53;;;;;;;;;;5011291;28;20092;-74
2022/11/06 11:02:02;;;;;;;11.52;5.38;;;11.20;99.90;;;;;;5019395;28;20561;-74
2022/11/06 11:04:31;;;;;;;11.02;5.10;;;11.30;99.90;;;;;;5018186;28;20368;-74
2022/11/06 11:07:02;;;;;;;8.18;4.05;;;11.40;99.90;;;;;;5010589;28;20512;-74
2022/11/06 11:09:30;;;;;;;10.60;4.75;;;11.60;99.90;;;;;;5011636;28;20037;-74
2022/11/06 11:11:56;;;;;;;11.40;4.03;;;11.80;99.90;;;;;;5012496;28;20088;-73
2022/11/06 11:14:28;;;;;;;8.80;3.30;;;11.80;99.90;;;;;;5027000;28;20037;-73
2022/11/06 11:16:55;;;;;;;12.45;3.78;;;;;;;;;;5023680;28;20033;-73
2022/11/06 11:19:40;;;;;;;9.88;3.63;;;11.80;99.90;;;;;;5012818;28;20116;-73
2022/11/06 11:22:14;;;;;;;8.55;3.85;;;11.80;99.90;;;;;;5020858;28;20053;-73
2022/11/06 11:24:57;;;;;;;7.32;3.70;;;11.90;99.90;;;;;;5021466;28;20033;-73
2022/11/06 11:27:23;;;;;;;5.82;3.20;;;12.00;99.90;;;;;;5011639;28;20041;-73
2022/11/06 11:29:49;;;;;;;5.88;3.10;;;;;;;;;;5020238;28;20045;-72
2022/11/06 11:32:17;;;;;;;10.93;3.38;;;12.00;99.90;;;;;;5018934;28;20079;-72
2022/11/06 11:34:47;;;;;;;7.03;2.83;;;12.00;99.90;;;;;;5030391;28;20116;-73
2022/11/06 11:37:29;;;;;;;6.18;3.65;;;11.90;99.90;;;;;;5019220;28;20026;-72
2022/11/06 11:39:55;;;;;;;6.72;2.60;;;12.00;99.90;;;;;;5014975;28;20018;-73
2022/11/06 11:42:29;;;;;;;7.68;2.72;;;12.00;99.90;;;;;;5012224;28;20033;-72
2022/11/06 11:45:16;;;;;;;6.60;2.58;;;12.00;99.90;;;;;;5016222;28;20069;-73
2022/11/06 11:47:45;;;;;;;8.32;3.47;;;12.00;99.90;;;;;;5017810;28;20086;-73
2022/11/06 11:50:17;;;;;;;7.00;3.22;;;12.10;99.90;;;;;;5011855;28;20079;-73
2022/11/06 11:52:45;;;;;;;15.77;8.13;;;12.00;99.90;;;;;;5018219;28;20079;-73
2022/11/06 11:55:22;;;;;;;11.77;3.95;;;12.10;99.90;;;;;;5022175;28;20102;-73
2022/11/06 11:57:51;;;;;;;8.50;3.75;;;12.10;99.90;;;;;;5036416;28;20053;-73
2022/11/06 12:00:18;;;;;;;5.40;2.47;;;12.20;99.90;;;;;;5027642;28;20034;-73
2022/11/06 12:02:53;;;;;;;8.98;2.70;;;12.20;99.90;;;;;;5021823;28;20029;-73
2022/11/06 12:05:27;;;;;;;7.15;2.65;;;12.30;99.90;;;;;;5026850;28;20039;-73
2022/11/06 12:07:55;;;;;;;8.07;3.80;;;12.30;99.90;;;;;;5033455;28;20437;-73
2022/11/06 12:10:33;;;;;;;13.75;6.22;;;12.50;99.90;;;;;;5028492;28;20485;-73
2022/11/06 12:13:02;;;;;;;7.28;4.18;;;12.50;99.90;;;;;;5025012;28;20063;-73
2022/11/06 12:15:32;;;;;;;11.20;5.65;;;12.60;99.90;;;;;;5018125;28;20026;-73
2022/11/06 12:18:10;;;;;;;7.07;2.55;;;12.60;99.90;;;;;;5017345;28;20560;-73
2022/11/06 12:20:40;;;;;;;7.47;2.70;;;12.60;99.90;;;;;;5015278;28;20064;-73
2022/11/06 12:23:13;;;;;;;3.75;2.30;;;12.70;99.90;;;;;;5008661;28;20477;-73
2022/11/06 12:25:42;;;;;;;5.55;2.30;;;12.80;99.90;;;;;;5013173;28;20572;-73
2022/11/06 12:28:15;;;;;;;5.82;2.20;;;13.00;99.90;;;;;;5019122;28;20038;-72
2022/11/06 12:30:44;;;;;;;7.68;2.00;;;13.10;99.90;;;;;;5012269;28;20548;-70
2022/11/06 12:33:15;;;;;;;7.90;2.28;;;13.20;99.90;;;;;;4329644;28;10001493;-71
2022/11/06 12:35:52;;;;;;;6.38;3.10;;;13.20;99.90;;;;;;5043888;28;20040;-71
2022/11/06 12:38:31;;;;;;;6.50;2.75;;;13.20;99.90;;;;;;5046564;28;20045;-72
2022/11/06 12:41:12;;;;;;;8.40;3.58;;;13.00;99.90;;;;;;5050729;28;20025;-71
2022/11/06 12:43:42;;;;;;;6.10;2.55;;;13.10;99.90;;;;;;5045258;28;20513;-71
2022/11/06 12:46:17;;;;;;;5.82;1.65;;;13.20;99.90;;;;;;5047902;28;20025;-72
2022/11/06 12:49:15;;;;;;;3.45;1.65;;;13.40;99.90;;;;;;5045463;28;20047;-73
2022/11/06 12:52:11;;;;;;;8.85;2.00;;;13.50;99.90;;;;;;5042597;28;20017;-73
2022/11/06 12:55:24;;;;;;;8.23;4.05;;;13.40;99.90;;;;;;5047250;28;20519;-73
2022/11/06 12:58:04;;;;;;;5.40;2.25;;;13.30;99.90;;;;;;5044494;28;20033;-72
2022/11/06 13:00:44;;;;;;;3.97;2.63;;;13.10;99.90;;;;;;5045764;28;20062;-73
2022/11/06 13:03:15;;;;;;;5.35;2.20;;;12.80;99.90;;;;;;5044794;28;20515;-74
2022/11/06 13:05:59;;;;;;;5.38;1.90;;;12.70;99.90;;;;;;5034808;28;20639;-73
2022/11/06 13:08:46;;;;;;;4.18;2.30;;;12.60;99.90;;;;;;5017010;28;20120;-71
2022/11/06 13:11:21;;;;;;;6.90;1.80;;;12.60;99.90;;;;;;5019601;28;20444;-74
2022/11/06 13:13:52;;;;;;;7.95;3.85;;;12.50;99.90;;;;;;5014195;28;20555;-74
2022/11/06 13:16:31;;;;;;;6.90;2.65;;;12.40;99.90;;;;;;5009527;28;20393;-73
2022/11/06 13:19:02;;;;;;;3.97;2.85;;;12.30;99.90;;;;;;5024490;28;20033;-71
2022/11/06 13:21:49;;;;;;;6.72;3.70;;;12.30;99.90;;;;;;5014845;28;20552;-71